createdAt,value
2019-04-20T00:00:01.063Z,1933.77
2019-04-20T00:02:29.667Z,1966.13
2019-04-20T00:04:59.123Z,1999.90
2019-04-20T00:07:32.469Z,1842.83
2019-04-20T00:10:06.290Z,1898.17
2019-04-20T00:12:46.086Z,1869.20
2019-04-20T00:15:00.628Z,1846.67
2019-04-20T00:17:30.654Z,1698.50
2019-04-20T00:20:04.772Z,1999.90
2019-04-20T00:22:40.237Z,1852.30
2019-04-20T00:25:10.526Z,1996.73
2019-04-20T00:27:59.803Z,1898.67
2019-04-20T00:30:31.530Z,1985.60
2019-04-20T00:32:53.249Z,1788.90
2019-04-20T00:35:10.854Z,1823.73
2019-04-20T00:37:42.912Z,1999.90
2019-04-20T00:40:12.698Z,1578.83
2019-04-20T00:42:48.485Z,1784.93
2019-04-20T00:45:20.436Z,1462.27
2019-04-20T00:47:53.745Z,1594.33
2019-04-20T00:50:28.305Z,1267.57
2019-04-20T00:53:02.277Z,1300.10
2019-04-20T00:55:16.915Z,1293.20
2019-04-20T00:57:51.866Z,1272.30
2019-04-20T01:00:35.049Z,1410.60
2019-04-20T01:03:02.333Z,1341.27
2019-04-20T01:05:35.364Z,1440.37
2019-04-20T01:07:56.405Z,1294.50
2019-04-20T01:10:23.658Z,1256.80
2019-04-20T01:13:01.194Z,1554.53
2019-04-20T01:15:32.652Z,1436.23
2019-04-20T01:17:53.993Z,1180.53
2019-04-20T01:20:26.487Z,1156.23
2019-04-20T01:23:00.099Z,1061.10
2019-04-20T01:25:30.102Z,748.77
2019-04-20T01:28:27.818Z,1096.20
2019-04-20T01:30:34.999Z,1189.13
2019-04-20T01:33:12.447Z,1290.23
2019-04-20T01:35:48.055Z,877.10
2019-04-20T01:38:16.695Z,839.23
2019-04-20T01:40:29.526Z,777.80
2019-04-20T01:42:59.525Z,779.87
2019-04-20T01:45:34.316Z,771.63
2019-04-20T01:48:01.807Z,664.47
2019-04-20T01:50:33.707Z,651.27
2019-04-20T01:53:11.549Z,747.37
2019-04-20T01:55:48.338Z,724.17
2019-04-20T01:58:27.423Z,917.57
2019-04-20T02:00:40.093Z,912.53
2019-04-20T02:03:09.916Z,765.93
2019-04-20T02:05:40.352Z,737.60
2019-04-20T02:08:14.480Z,833.13
2019-04-20T02:10:47.690Z,1111.07
2019-04-20T02:13:11.297Z,1328.97
2019-04-20T02:15:45.131Z,1180.00
2019-04-20T02:18:23.152Z,1270.70
2019-04-20T02:20:59.894Z,1011.90
2019-04-20T02:23:24.987Z,1132.93
2019-04-20T02:25:43.994Z,1064.97
2019-04-20T02:28:27.394Z,895.27
2019-04-20T02:33:47.234Z,527.73
2019-04-20T02:39:17.063Z,479.07
2019-04-20T02:41:27.583Z,303.37
2019-04-20T02:44:11.083Z,376.67
2019-04-20T02:46:24.674Z,395.27
2019-04-20T02:49:06.065Z,307.30
2019-04-20T02:54:14.937Z,385.20
2019-04-20T02:56:32.738Z,375.80
2019-04-20T02:59:29.623Z,359.30
2019-04-20T03:01:25.322Z,222.27
2019-04-20T03:03:36.562Z,213.60
2019-04-20T03:06:13.469Z,200.53
2019-04-20T03:08:56.364Z,257.10
2019-04-20T03:11:29.407Z,189.73
2019-04-20T03:13:56.778Z,197.43
2019-04-20T03:16:24.223Z,243.97
2019-04-20T03:18:51.297Z,237.00
2019-04-20T03:21:33.033Z,273.23
2019-04-20T03:24:06.517Z,165.80
2019-04-20T03:26:29.789Z,175.97
2019-04-20T03:28:56.963Z,170.57
2019-04-20T03:31:54.355Z,114.27
2019-04-20T03:36:42.804Z,122.50
2019-04-20T03:39:01.492Z,136.00
2019-04-20T03:41:24.525Z,156.60
2019-04-20T03:43:46.102Z,123.87
2019-04-20T03:46:19.256Z,117.37
2019-04-20T03:48:58.683Z,174.13
2019-04-20T03:51:40.059Z,110.70
2019-04-20T03:54:12.163Z,101.73
2019-04-20T03:56:40.579Z,84.77
2019-04-20T03:59:10.426Z,79.33
2019-04-20T04:02:08.945Z,91.93
2019-04-20T04:04:21.497Z,81.73
2019-04-20T04:06:39.072Z,107.70
2019-04-20T04:09:13.615Z,97.00
2019-04-20T04:11:48.996Z,73.23
2019-04-20T04:14:05.012Z,48.97
2019-04-20T04:16:41.913Z,57.30
2019-04-20T04:19:12.714Z,43.83
2019-04-20T04:21:50.143Z,73.17
2019-04-20T04:24:19.944Z,83.47
2019-04-20T04:26:51.676Z,51.20
2019-04-20T04:29:34.581Z,54.03
2019-04-20T04:32:05.423Z,57.50
2019-04-20T04:34:31.035Z,40.03
2019-04-20T04:37:00.596Z,78.50
2019-04-20T04:39:32.212Z,84.30
2019-04-20T04:42:12.782Z,85.03
2019-04-20T04:44:26.616Z,216.83
2019-04-20T04:46:49.254Z,290.80
2019-04-20T04:49:19.513Z,608.97
2019-04-20T04:51:51.977Z,1038.80
2019-04-20T04:54:24.680Z,1485.87
2019-04-20T04:56:44.635Z,1997.57
2019-04-20T04:59:14.842Z,1999.90
2019-04-20T05:01:46.965Z,1987.33
2019-04-20T05:04:32.064Z,1915.13
2019-04-20T05:06:59.500Z,1570.37
2019-04-20T05:09:17.679Z,1227.20
2019-04-20T05:11:50.718Z,1267.57
2019-04-20T05:14:24.226Z,909.50
2019-04-20T05:17:01.574Z,842.67
2019-04-20T05:19:42.517Z,813.83
2019-04-20T05:22:16.307Z,796.97
2019-04-20T05:24:41.692Z,735.20
2019-04-20T05:27:21.578Z,782.20
2019-04-20T05:29:31.403Z,782.33
2019-04-20T05:32:04.423Z,789.73
2019-04-20T05:34:53.394Z,836.67
2019-04-20T05:37:27.478Z,904.17
2019-04-20T05:39:50.943Z,889.80
2019-04-20T05:42:26.124Z,948.07
2019-04-20T05:44:55.633Z,940.20
2019-04-20T05:47:24.062Z,928.77
2019-04-20T05:49:49.939Z,970.40
2019-04-20T05:54:58.434Z,966.23
2019-04-20T05:57:31.923Z,970.67
2019-04-20T06:00:03.516Z,982.60
2019-04-20T06:02:30.588Z,983.53
2019-04-20T06:07:31.370Z,943.30
2019-04-20T06:10:02.001Z,916.42
2019-04-20T06:12:31.747Z,886.25
2019-04-20T06:14:57.156Z,833.85
2019-04-20T06:17:32.719Z,847.27
2019-04-20T06:20:06.139Z,844.15
2019-04-20T06:22:57.430Z,841.95
2019-04-20T06:25:26.067Z,822.20
2019-04-20T06:27:46.014Z,844.48
2019-04-20T06:30:05.897Z,850.05
2019-04-20T06:33:11.230Z,871.20
2019-04-20T06:35:54.611Z,872.00
2019-04-20T06:38:10.290Z,897.12
2019-04-20T06:41:00.612Z,901.73
2019-04-20T06:43:08.548Z,903.88
2019-04-20T06:45:44.787Z,853.40
2019-04-20T06:48:16.132Z,872.52
2019-04-20T06:50:38.719Z,866.90
2019-04-20T06:53:20.752Z,833.27
2019-04-20T06:55:48.644Z,859.80
2019-04-20T06:58:29.134Z,820.55
2019-04-20T07:00:46.538Z,810.33
2019-04-20T07:03:34.620Z,818.07
2019-04-20T07:05:44.728Z,813.20
2019-04-20T07:08:36.053Z,798.95
2019-04-20T07:10:56.348Z,791.90
2019-04-20T07:13:13.112Z,798.97
2019-04-20T07:15:48.924Z,809.20
2019-04-20T07:18:24.659Z,790.17
2019-04-20T07:23:26.840Z,734.50
2019-04-20T07:25:54.378Z,767.15
2019-04-20T07:28:31.313Z,764.83
2019-04-20T07:30:58.229Z,794.73
2019-04-20T07:33:28.415Z,790.70
2019-04-20T07:35:55.900Z,808.13
2019-04-20T07:38:34.262Z,804.80
2019-04-20T07:41:01.307Z,783.45
2019-04-20T07:43:30.030Z,808.75
2019-04-20T07:46:01.836Z,809.10
2019-04-20T07:48:49.237Z,776.77
2019-04-20T07:51:11.478Z,781.35
2019-04-20T07:53:50.201Z,840.50
2019-04-20T07:56:23.612Z,796.67
2019-04-20T07:58:45.496Z,780.65
2019-04-20T08:01:38.679Z,802.40
2019-04-20T08:07:01.694Z,774.67
2019-04-20T08:09:35.223Z,750.22
2019-04-20T08:12:22.079Z,728.73
2019-04-20T08:14:56.977Z,728.02
2019-04-20T08:17:30.969Z,745.35
2019-04-20T08:19:48.478Z,728.10
2019-04-20T08:22:24.617Z,771.27
2019-04-20T08:24:48.721Z,747.23
2019-04-20T08:27:06.531Z,757.92
2019-04-20T08:29:48.351Z,752.00
2019-04-20T08:32:27.108Z,790.62
2019-04-20T08:35:01.879Z,766.92
2019-04-20T08:37:29.275Z,738.87
2019-04-20T08:40:03.051Z,814.12
2019-04-20T08:42:33.255Z,764.23
2019-04-20T08:45:03.741Z,777.67
2019-04-20T08:47:48.225Z,798.73
2019-04-20T08:50:11.615Z,779.65
2019-04-20T08:52:58.679Z,818.55
2019-04-20T08:55:05.004Z,779.10
2019-04-20T08:57:16.017Z,830.57
2019-04-20T08:59:48.216Z,792.72
2019-04-20T09:02:18.705Z,758.95
2019-04-20T09:04:54.084Z,793.10
2019-04-20T09:07:24.372Z,833.38
2019-04-20T09:10:10.043Z,777.97
2019-04-20T09:12:35.531Z,770.35
2019-04-20T09:14:50.797Z,749.20
2019-04-20T09:17:29.933Z,731.47
2019-04-20T09:19:59.968Z,772.85
2019-04-20T09:22:34.359Z,740.55
2019-04-20T09:25:36.475Z,754.87
2019-04-20T09:27:52.181Z,761.15
2019-04-20T09:30:29.245Z,782.77
2019-04-20T09:33:09.857Z,782.05
2019-04-20T09:35:37.315Z,813.23
2019-04-20T09:38:11.582Z,859.62
2019-04-20T09:40:40.491Z,844.20
2019-04-20T09:42:57.797Z,809.92
2019-04-20T09:45:37.371Z,822.52
2019-04-20T09:48:00.556Z,805.30
2019-04-20T09:50:51.798Z,802.33
2019-04-20T09:53:14.300Z,796.40
2019-04-20T09:55:50.637Z,786.85
2019-04-20T09:58:15.514Z,880.15
2019-04-20T10:00:53.027Z,808.87
2019-04-20T10:03:06.646Z,853.33
2019-04-20T10:05:35.799Z,826.95
2019-04-20T10:08:08.477Z,811.35
2019-04-20T10:10:40.572Z,848.83
2019-04-20T10:13:07.336Z,793.42
2019-04-20T10:15:37.536Z,804.67
2019-04-20T10:18:07.877Z,852.70
2019-04-20T10:20:38.911Z,849.10
2019-04-20T10:23:08.709Z,957.02
2019-04-20T10:25:38.423Z,1012.48
2019-04-20T10:28:07.694Z,874.87
2019-04-20T10:30:36.813Z,921.63
2019-04-20T10:33:07.747Z,903.50
2019-04-20T10:35:36.993Z,923.32
2019-04-20T10:38:07.612Z,859.00
2019-04-20T10:40:46.152Z,856.02
2019-04-20T10:43:08.045Z,928.45
2019-04-20T10:45:37.434Z,853.77
2019-04-20T10:48:06.644Z,913.38
2019-04-20T10:50:55.326Z,1089.50
2019-04-20T10:53:25.901Z,985.73
2019-04-20T10:55:55.684Z,859.62
2019-04-20T10:58:25.281Z,831.17
2019-04-20T11:00:55.626Z,996.18
2019-04-20T11:03:24.900Z,869.65
2019-04-20T11:05:53.937Z,853.75
2019-04-20T11:08:24.399Z,827.85
2019-04-20T11:11:05.116Z,900.58
2019-04-20T11:13:25.442Z,858.80
2019-04-20T11:15:54.788Z,819.88
2019-04-20T11:18:24.839Z,872.40
2019-04-20T11:20:55.220Z,811.88
2019-04-20T11:23:24.536Z,835.37
2019-04-20T11:25:53.578Z,834.40
2019-04-20T11:28:23.983Z,838.83
2019-04-20T11:30:54.230Z,814.15
2019-04-20T11:33:24.526Z,846.25
2019-04-20T11:35:54.850Z,860.58
2019-04-20T11:38:24.167Z,839.58
2019-04-20T11:41:04.140Z,834.28
2019-04-20T11:43:23.995Z,851.98
2019-04-20T11:45:54.313Z,960.92
2019-04-20T11:48:23.507Z,927.70
2019-04-20T11:50:53.517Z,877.28
2019-04-20T11:53:26.216Z,807.67
2019-04-20T11:55:54.228Z,797.30
2019-04-20T11:58:23.855Z,815.83
2019-04-20T12:01:03.255Z,855.15
2019-04-20T12:03:33.321Z,873.42
2019-04-20T12:05:59.792Z,870.57
2019-04-20T12:08:27.198Z,928.63
2019-04-20T12:10:59.841Z,864.38
2019-04-20T12:13:27.064Z,816.10
2019-04-20T12:15:56.160Z,860.15
2019-04-20T12:18:25.465Z,899.42
2019-04-20T12:20:54.811Z,828.77
2019-04-20T12:23:24.453Z,810.13
2019-04-20T12:25:54.397Z,828.05
2019-04-20T12:28:23.618Z,840.83
2019-04-20T12:30:56.003Z,880.30
2019-04-20T12:33:24.373Z,835.48
2019-04-20T12:35:54.221Z,874.90
2019-04-20T12:38:23.393Z,842.65
2019-04-20T12:40:52.600Z,858.98
2019-04-20T12:43:21.662Z,841.30
2019-04-20T12:45:51.721Z,844.60
2019-04-20T12:48:21.799Z,772.75
2019-04-20T12:50:50.909Z,775.00
2019-04-20T12:53:20.438Z,806.02
2019-04-20T12:55:50.733Z,775.02
2019-04-20T12:58:20.872Z,772.58
2019-04-20T13:00:52.286Z,814.78
2019-04-20T13:03:21.547Z,781.97
2019-04-20T13:05:51.900Z,803.95
2019-04-20T13:08:28.654Z,790.05
2019-04-20T13:10:54.786Z,816.40
2019-04-20T13:13:26.151Z,811.17
2019-04-20T13:15:56.285Z,833.95
2019-04-20T13:18:27.448Z,854.92
2019-04-20T13:20:58.817Z,756.15
2019-04-20T13:23:28.973Z,989.72
2019-04-20T13:25:59.190Z,770.05
2019-04-20T13:28:28.891Z,860.37
2019-04-20T13:30:58.274Z,834.80
2019-04-20T13:33:29.443Z,820.37
2019-04-20T13:35:58.999Z,745.52
2019-04-20T13:38:30.175Z,868.88
2019-04-20T13:40:59.823Z,800.00
2019-04-20T13:43:29.991Z,767.27
2019-04-20T13:46:20.832Z,793.83
2019-04-20T13:48:51.048Z,850.95
2019-04-20T13:51:21.045Z,959.47
2019-04-20T13:53:51.016Z,836.10
2019-04-20T13:56:21.746Z,993.35
2019-04-20T13:58:52.727Z,816.77
2019-04-20T14:01:24.665Z,781.78
2019-04-20T14:03:55.510Z,850.15
2019-04-20T14:06:26.731Z,1055.45
2019-04-20T14:08:56.859Z,819.88
2019-04-20T14:11:27.317Z,862.33
2019-04-20T14:14:00.368Z,908.80
2019-04-20T14:16:27.233Z,914.87
2019-04-20T14:18:56.343Z,843.75
2019-04-20T14:21:26.064Z,1144.63
2019-04-20T14:23:55.298Z,918.92
2019-04-20T14:26:25.166Z,897.90
2019-04-20T14:28:54.785Z,889.93
2019-04-20T14:31:23.851Z,811.15
2019-04-20T14:33:53.012Z,762.00
2019-04-20T14:36:24.138Z,894.03
2019-04-20T14:38:54.092Z,805.67
2019-04-20T14:41:24.326Z,946.18
2019-04-20T14:43:53.410Z,867.33
2019-04-20T14:46:23.054Z,900.98
2019-04-20T14:48:52.420Z,964.75
2019-04-20T14:51:21.592Z,853.22
2019-04-20T14:53:51.577Z,809.05
2019-04-20T14:56:20.555Z,815.15
2019-04-20T14:58:51.454Z,764.17
2019-04-20T15:01:22.766Z,819.08
2019-04-20T15:04:00.155Z,955.98
2019-04-20T15:06:23.597Z,1015.83
2019-04-20T15:08:52.803Z,939.17
2019-04-20T15:11:22.905Z,836.52
2019-04-20T15:13:53.067Z,797.20
2019-04-20T15:16:22.483Z,948.90
2019-04-20T15:18:54.652Z,812.35
2019-04-20T15:21:25.701Z,866.92
2019-04-20T15:23:55.434Z,825.42
2019-04-20T15:26:24.491Z,798.40
2019-04-20T15:28:54.556Z,803.05
2019-04-20T15:31:24.232Z,784.17
2019-04-20T15:33:53.322Z,810.20
2019-04-20T15:36:22.355Z,851.02
2019-04-20T15:38:51.440Z,836.75
2019-04-20T15:41:20.871Z,809.58
2019-04-20T15:43:51.243Z,748.17
2019-04-20T15:46:21.380Z,951.48
2019-04-20T15:48:50.601Z,917.42
2019-04-20T15:51:19.637Z,742.53
2019-04-20T15:53:49.546Z,825.05
2019-04-20T15:56:18.719Z,778.17
2019-04-20T15:58:48.361Z,860.25
2019-04-20T16:01:20.691Z,789.32
2019-04-20T16:03:51.521Z,843.70
2019-04-20T16:06:21.217Z,815.87
2019-04-20T16:08:52.281Z,839.78
2019-04-20T16:11:21.600Z,870.17
2019-04-20T16:13:53.987Z,945.05
2019-04-20T16:16:21.766Z,815.35
2019-04-20T16:18:50.805Z,815.35
2019-04-20T16:21:23.060Z,891.35
2019-04-20T16:23:54.693Z,824.50
2019-04-20T16:26:25.939Z,791.42
2019-04-20T16:28:55.507Z,779.60
2019-04-20T16:31:25.185Z,813.50
2019-04-20T16:33:56.942Z,798.85
2019-04-20T16:36:26.144Z,803.15
2019-04-20T16:38:55.590Z,834.52
2019-04-20T16:41:24.683Z,831.00
2019-04-20T16:43:53.698Z,839.00
2019-04-20T16:46:25.574Z,776.48
2019-04-20T16:48:54.836Z,903.50
2019-04-20T16:51:25.111Z,826.25
2019-04-20T16:53:54.300Z,819.03
2019-04-20T16:56:24.444Z,805.93
2019-04-20T16:59:00.287Z,796.83
2019-04-20T17:01:25.513Z,792.35
2019-04-20T17:04:05.704Z,867.80
2019-04-20T17:06:27.493Z,779.83
2019-04-20T17:08:56.643Z,937.08
2019-04-20T17:11:25.794Z,804.57
2019-04-20T17:13:57.932Z,983.70
2019-04-20T17:16:26.470Z,842.47
2019-04-20T17:18:57.344Z,865.45
2019-04-20T17:21:28.962Z,898.05
2019-04-20T17:23:57.532Z,923.85
2019-04-20T17:26:29.565Z,835.55
2019-04-20T17:29:01.760Z,835.20
2019-04-20T17:31:33.567Z,807.73
2019-04-20T17:34:25.032Z,836.28
2019-04-20T17:36:39.878Z,902.85
2019-04-20T17:39:11.596Z,813.65
2019-04-20T17:41:54.576Z,973.32
2019-04-20T17:44:28.704Z,833.87
2019-04-20T17:46:52.360Z,889.78
2019-04-20T17:49:26.537Z,879.92
2019-04-20T17:52:05.001Z,913.87
2019-04-20T17:54:15.816Z,924.47
2019-04-20T17:56:46.538Z,887.40
2019-04-20T17:59:16.693Z,929.57
2019-04-20T18:02:02.197Z,897.10
2019-04-20T18:04:52.028Z,903.97
2019-04-20T18:07:04.667Z,877.00
2019-04-20T18:09:47.491Z,938.70
2019-04-20T18:11:58.704Z,903.45
2019-04-20T18:14:43.267Z,915.00
2019-04-20T18:17:13.851Z,908.53
2019-04-20T18:19:32.698Z,867.45
2019-04-20T18:22:03.665Z,859.92
2019-04-20T18:24:55.762Z,902.23
2019-04-20T18:27:27.620Z,861.97
2019-04-20T18:29:53.401Z,914.65
2019-04-20T18:32:09.345Z,884.47
2019-04-20T18:34:44.037Z,893.27
2019-04-20T18:37:16.717Z,890.67
2019-04-20T18:39:50.548Z,907.40
2019-04-20T18:42:22.885Z,895.43
2019-04-20T18:45:05.972Z,907.43
2019-04-20T18:47:33.532Z,899.77
2019-04-20T18:49:57.263Z,880.90
2019-04-20T18:52:17.875Z,932.70
2019-04-20T18:54:49.720Z,871.17
2019-04-20T18:57:20.455Z,881.90
2019-04-20T18:59:54.140Z,880.47
2019-04-20T19:02:26.526Z,888.37
2019-04-20T19:04:50.079Z,877.27
2019-04-20T19:07:19.752Z,860.83
2019-04-20T19:09:55.230Z,856.00
2019-04-20T19:12:30.107Z,892.80
2019-04-20T19:15:02.432Z,880.00
2019-04-20T19:17:40.973Z,863.93
2019-04-20T19:20:00.459Z,878.80
2019-04-20T19:22:30.158Z,826.60
2019-04-20T19:25:00.040Z,829.77
2019-04-20T19:27:40.008Z,845.93
2019-04-20T19:30:15.217Z,849.17
2019-04-20T19:32:45.307Z,854.70
2019-04-20T19:35:23.901Z,832.27
2019-04-20T19:37:50.268Z,840.60
2019-04-20T19:40:18.254Z,831.20
2019-04-20T19:42:47.725Z,819.97
2019-04-20T19:45:37.291Z,828.57
2019-04-20T19:47:54.751Z,793.43
2019-04-20T19:50:35.508Z,765.07
2019-04-20T19:53:14.387Z,751.23
2019-04-20T19:55:27.365Z,672.23
2019-04-20T19:57:58.553Z,658.60
2019-04-20T20:00:16.748Z,589.03
2019-04-20T20:02:47.876Z,612.03
2019-04-20T20:05:19.205Z,637.77
2019-04-20T20:07:52.383Z,683.57
2019-04-20T20:10:20.818Z,675.77
2019-04-20T20:12:55.089Z,693.67
2019-04-20T20:15:26.203Z,727.60
2019-04-20T20:18:12.654Z,727.43
2019-04-20T20:20:41.480Z,783.40
2019-04-20T20:22:56.436Z,775.93
2019-04-20T20:25:29.651Z,777.20
2019-04-20T20:27:58.395Z,782.73
2019-04-20T20:30:33.176Z,756.97
2019-04-20T20:33:12.787Z,756.80
2019-04-20T20:35:29.396Z,788.47
2019-04-20T20:38:00.363Z,754.70
2019-04-20T20:40:32.714Z,783.60
2019-04-20T20:43:10.848Z,765.83
2019-04-20T20:45:38.152Z,772.30
2019-04-20T20:48:18.260Z,753.33
2019-04-20T20:50:52.178Z,759.40
2019-04-20T20:53:12.497Z,788.50
2019-04-20T20:55:42.084Z,807.27
2019-04-20T20:58:13.809Z,760.27
2019-04-20T21:00:45.760Z,765.80
2019-04-20T21:03:09.151Z,813.63
2019-04-20T21:05:35.720Z,831.53
2019-04-20T21:08:06.003Z,841.80
2019-04-20T21:10:41.005Z,875.20
2019-04-20T21:13:09.151Z,863.57
2019-04-20T21:15:38.229Z,924.93
2019-04-20T21:18:29.321Z,916.73
2019-04-20T21:20:55.997Z,928.77
2019-04-20T21:23:23.670Z,947.83
2019-04-20T21:25:48.371Z,990.17
2019-04-20T21:28:13.086Z,1240.40
2019-04-20T21:30:45.145Z,1200.37
2019-04-20T21:33:13.209Z,1383.70
2019-04-20T21:35:48.335Z,1387.67
2019-04-20T21:38:16.531Z,1337.40
2019-04-20T21:40:48.757Z,1558.90
2019-04-20T21:43:16.308Z,1573.30
2019-04-20T21:45:54.072Z,1593.97
2019-04-20T21:48:34.038Z,1549.53
2019-04-20T21:51:05.848Z,1664.97
2019-04-20T21:53:22.936Z,1605.57
2019-04-20T21:55:48.367Z,1721.87
2019-04-20T21:58:18.415Z,1824.00
2019-04-20T22:01:03.801Z,1917.57
2019-04-20T22:03:22.704Z,1921.57
2019-04-20T22:05:53.558Z,1843.10
2019-04-20T22:08:22.642Z,1970.07
2019-04-20T22:10:51.790Z,1894.63
2019-04-20T22:13:28.148Z,1891.07
2019-04-20T22:15:59.745Z,1986.90
2019-04-20T22:18:23.931Z,1906.00
2019-04-20T22:21:05.939Z,1994.13
2019-04-20T22:23:46.399Z,1957.57
2019-04-20T22:26:09.617Z,1814.47
2019-04-20T22:28:26.521Z,1999.90
2019-04-20T22:30:55.831Z,1999.90
2019-04-20T22:33:31.426Z,1999.90
2019-04-20T22:36:00.915Z,1963.00
2019-04-20T22:38:30.818Z,1813.23
2019-04-20T22:41:06.814Z,1842.67
2019-04-20T22:43:34.997Z,1784.40
2019-04-20T22:46:01.319Z,1673.87
2019-04-20T22:48:31.336Z,1608.60
2019-04-20T22:51:37.336Z,1442.57
2019-04-20T22:53:44.018Z,1272.57
2019-04-20T22:56:19.744Z,1194.77
2019-04-20T22:58:44.802Z,1214.23
2019-04-20T23:01:09.580Z,1134.80
2019-04-20T23:03:34.716Z,939.20
2019-04-20T23:06:04.820Z,1014.97
2019-04-20T23:08:35.034Z,1012.70
2019-04-20T23:11:05.984Z,1089.53
2019-04-20T23:13:39.762Z,1095.17
2019-04-20T23:16:07.414Z,877.87
2019-04-20T23:18:36.481Z,1083.30
2019-04-20T23:21:10.453Z,1035.30
2019-04-20T23:23:37.374Z,1014.90
2019-04-20T23:26:07.248Z,928.43
2019-04-20T23:28:40.067Z,757.63
2019-04-20T23:31:13.359Z,756.73
2019-04-20T23:33:38.074Z,417.73
2019-04-20T23:36:08.497Z,610.23
2019-04-20T23:38:42.508Z,691.67
2019-04-20T23:41:08.421Z,746.77
2019-04-20T23:43:40.443Z,701.13
2019-04-20T23:46:17.230Z,609.30
2019-04-20T23:48:45.113Z,598.87
2019-04-20T23:51:36.936Z,641.50
2019-04-20T23:53:55.334Z,616.00
2019-04-20T23:56:17.420Z,720.80
2019-04-20T23:58:51.218Z,744.77
